Alem Mar — CUFT8 — position and weather

sailwx.info

Track history (hours):
 
Tides and Currents Weather Stations Pressure Air Temp Water Temp Dewpoint Dewpoint Depression Visibility Wind Speed Wind Dir Waves Ship Positions

Alem Mar

Last reported at 2017-Nov-07 08:57 UTC. Time now 2017-Nov-21 23:18 UTC.
Position N 41°16' W 008°45'.
Warning: this ship's position is 14 days out of date.

Type: Fishing. MMSI: 263414680.

Date/timePositionNaut miles runAvg speedWind from/ knotsBaromVisibWave heightAir tempDewpointWater temp
2017-Nov-07 08:57N 41°16' W 008°45'4 9.6
2017-Nov-07 08:31N 41°12' W 008°44'2 3.8
2017-Nov-07 08:01N 41°11' W 008°42'8 0.2
2017-Nov-06 00:37N 41°03' W 008°43'110.3
2017-Nov-06 00:30N 41°04' W 008°43'510.1
2017-Nov-06 00:00N 41°09' W 008°42'  
2017-Nov-03 10:09N 41°11' W 008°42'0 0.0
2017-Nov-03 10:00N 41°11' W 008°42'0 0.0
2017-Nov-03 09:31N 41°11' W 008°42'0 0.0
2017-Nov-03 09:00N 41°11' W 008°42'0 0.0
2017-Nov-03 08:30N 41°11' W 008°42'0 0.0
2017-Nov-03 08:00N 41°11' W 008°42'3 6.8
2017-Nov-03 07:30N 41°08' W 008°43'4 0.5
2017-Nov-02 22:43N 41°03' W 008°43'2 9.2
2017-Nov-02 22:30N 41°05' W 008°43'5 9.2
2017-Nov-02 22:01N 41°10' W 008°42'1 0.1
2017-Nov-02 11:11N 41°11' W 008°42'0 0.0
2017-Nov-02 11:00N 41°11' W 008°42'0 0.0
2017-Nov-02 10:30N 41°11' W 008°42'0 0.0
2017-Nov-02 10:00N 41°11' W 008°42'0 0.0
2017-Nov-02 09:30N 41°11' W 008°42'0 0.0
2017-Nov-02 09:00N 41°11' W 008°42'1 1.8
2017-Nov-02 08:30N 41°10' W 008°42'5 0.6
2017-Nov-01 23:33N 41°05' W 008°43'1 9.3
2017-Nov-01 23:30N 41°06' W 008°43'5 9.4
2017-Nov-01 23:00N 41°10' W 008°42'1 1.8
2017-Nov-01 22:30N 41°11' W 008°42'0 0.0
2017-Oct-31 12:14N 41°11' W 008°42'0 0.7
2017-Oct-31 12:01N 41°11' W 008°42'0 0.1
2017-Oct-31 09:56N 41°11' W 008°42'0 0.0
2017-Oct-31 09:30N 41°11' W 008°42'0 0.0
2017-Oct-31 09:00N 41°11' W 008°42'0 0.0
2017-Oct-31 08:30N 41°11' W 008°42'0 0.0
2017-Oct-31 08:00N 41°11' W 008°42'0 0.0
2017-Oct-31 07:30N 41°11' W 008°42'0 0.0
2017-Oct-31 07:00N 41°11' W 008°42'0 0.0
2017-Oct-31 06:30N 41°11' W 008°42'0 0.0
2017-Oct-31 06:00N 41°11' W 008°42'0 0.0
2017-Oct-31 05:30N 41°11' W 008°42'0 0.0
2017-Oct-31 05:00N 41°11' W 008°42'3 6.5
2017-Oct-31 04:30N 41°08' W 008°41'  
Track history (hours):
 
Tides and Currents Weather Stations Pressure Air Temp Water Temp Dewpoint Dewpoint Depression Visibility Wind Speed Wind Dir Waves Ship Positions

Alem Mar

Last reported at 2017-Nov-07 08:57 UTC. Time now 2017-Nov-21 23:18 UTC.
Position N 41°16' W 008°45'.
Warning: this ship's position is 14 days out of date.

Type: Fishing. MMSI: 263414680.

Date/timePositionNaut miles runAvg speedWind from/ knotsBaromVisibWave heightAir tempDewpointWater temp
2017-Nov-07 08:57N 41°16' W 008°45'4 9.6
2017-Nov-07 08:31N 41°12' W 008°44'2 3.8
2017-Nov-07 08:01N 41°11' W 008°42'8 0.2
2017-Nov-06 00:37N 41°03' W 008°43'110.3
2017-Nov-06 00:30N 41°04' W 008°43'510.1
2017-Nov-06 00:00N 41°09' W 008°42'  
2017-Nov-03 10:09N 41°11' W 008°42'0 0.0
2017-Nov-03 10:00N 41°11' W 008°42'0 0.0
2017-Nov-03 09:31N 41°11' W 008°42'0 0.0
2017-Nov-03 09:00N 41°11' W 008°42'0 0.0
2017-Nov-03 08:30N 41°11' W 008°42'0 0.0
2017-Nov-03 08:00N 41°11' W 008°42'3 6.8
2017-Nov-03 07:30N 41°08' W 008°43'4 0.5
2017-Nov-02 22:43N 41°03' W 008°43'2 9.2
2017-Nov-02 22:30N 41°05' W 008°43'5 9.2
2017-Nov-02 22:01N 41°10' W 008°42'1 0.1
2017-Nov-02 11:11N 41°11' W 008°42'0 0.0
2017-Nov-02 11:00N 41°11' W 008°42'0 0.0
2017-Nov-02 10:30N 41°11' W 008°42'0 0.0
2017-Nov-02 10:00N 41°11' W 008°42'0 0.0
2017-Nov-02 09:30N 41°11' W 008°42'0 0.0
2017-Nov-02 09:00N 41°11' W 008°42'1 1.8
2017-Nov-02 08:30N 41°10' W 008°42'5 0.6
2017-Nov-01 23:33N 41°05' W 008°43'1 9.3
2017-Nov-01 23:30N 41°06' W 008°43'5 9.4
2017-Nov-01 23:00N 41°10' W 008°42'1 1.8
2017-Nov-01 22:30N 41°11' W 008°42'0 0.0
2017-Oct-31 12:14N 41°11' W 008°42'0 0.7
2017-Oct-31 12:01N 41°11' W 008°42'0 0.1
2017-Oct-31 09:56N 41°11' W 008°42'0 0.0
2017-Oct-31 09:30N 41°11' W 008°42'0 0.0
2017-Oct-31 09:00N 41°11' W 008°42'0 0.0
2017-Oct-31 08:30N 41°11' W 008°42'0 0.0
2017-Oct-31 08:00N 41°11' W 008°42'0 0.0
2017-Oct-31 07:30N 41°11' W 008°42'0 0.0
2017-Oct-31 07:00N 41°11' W 008°42'0 0.0
2017-Oct-31 06:30N 41°11' W 008°42'0 0.0
2017-Oct-31 06:00N 41°11' W 008°42'0 0.0
2017-Oct-31 05:30N 41°11' W 008°42'0 0.0
2017-Oct-31 05:00N 41°11' W 008°42'3 6.5
2017-Oct-31 04:30N 41°08' W 008°41'  

Dump ship's entire track history